Time;durP1;ratioP1;P1;durP2;ratioP2;P2;SDS_P1;SDS_P2;PMS_P1;PMS_P2;Temp;Humidity;BMP_temperature;BMP_pressure;BME280_temperature;BME280_humidity;BME280_pressure;Samples;Min_cycle;Max_cycle;Signal;HPM_P1;HPM_P2
2022/08/11 00:00:38;;;;;;;5.70;3.50;;;19.70;99.90;;;;;;5028425;28;20035;-78
2022/08/11 00:03:07;;;;;;;8.27;4.43;;;19.70;99.90;;;;;;5025123;28;20035;-79
2022/08/11 00:05:43;;;;;;;7.20;3.35;;;19.70;99.90;;;;;;5045974;28;20038;-79
2022/08/11 00:08:10;;;;;;;4.38;3.00;;;19.60;99.90;;;;;;5063889;28;20459;-79
2022/08/11 00:10:37;;;;;;;7.70;3.72;;;19.60;99.90;;;;;;5028233;28;20421;-79
2022/08/11 00:13:06;;;;;;;4.55;3.42;;;19.60;99.90;;;;;;5007294;28;20047;-79
2022/08/11 00:15:44;;;;;;;4.45;3.22;;;19.50;99.90;;;;;;5047824;28;20038;-79
2022/08/11 00:18:12;;;;;;;5.55;3.25;;;19.50;99.90;;;;;;5033504;28;20047;-79
2022/08/11 00:20:42;;;;;;;5.50;3.45;;;19.50;99.90;;;;;;5056953;28;20034;-79
2022/08/11 00:23:15;;;;;;;7.28;3.13;;;19.50;99.90;;;;;;5046213;28;20039;-78
2022/08/11 00:25:45;;;;;;;4.38;3.30;;;19.40;99.90;;;;;;5056432;28;20444;-79
2022/08/11 00:28:30;;;;;;;4.35;3.35;;;19.40;99.90;;;;;;5019109;28;20043;-79
2022/08/11 00:31:01;;;;;;;4.85;3.20;;;19.40;99.90;;;;;;5050794;28;20518;-78
2022/08/11 00:33:42;;;;;;;5.10;3.20;;;19.40;99.90;;;;;;5074569;22;20044;-62
2022/08/11 00:36:10;;;;;;;4.68;3.22;;;19.30;99.90;;;;;;5082863;28;20123;-62
2022/08/11 00:38:39;;;;;;;7.28;3.70;;;19.30;99.90;;;;;;5056172;28;20131;-62
2022/08/11 00:41:32;;;;;;;7.13;3.65;;;19.30;99.90;;;;;;5077315;28;20048;-62
2022/08/11 00:44:32;;;;;;;6.05;3.80;;;19.30;99.90;;;;;;5083214;28;20042;-62
2022/08/11 00:47:16;;;;;;;6.65;3.55;;;19.20;99.90;;;;;;5066543;28;20110;-62
2022/08/11 00:49:52;;;;;;;5.57;3.75;;;19.20;99.90;;;;;;5050273;28;20202;-62
2022/08/11 00:52:58;;;;;;;5.47;3.35;;;19.20;99.90;;;;;;5070918;28;20036;-62
2022/08/11 00:55:56;;;;;;;6.25;3.60;;;19.20;99.90;;;;;;5064167;28;20060;-62
2022/08/11 00:59:07;;;;;;;6.72;4.25;;;19.20;99.90;;;;;;5033421;28;20106;-62
2022/08/11 01:01:36;;;;;;;10.68;4.22;;;19.10;99.90;;;;;;5073884;28;20036;-62
2022/08/11 01:04:33;;;;;;;6.43;4.18;;;19.10;99.90;;;;;;5060095;28;20048;-62
2022/08/11 01:07:40;;;;;;;5.65;3.90;;;19.10;99.90;;;;;;5068839;28;20048;-62
2022/08/11 01:10:29;;;;;;;7.03;4.07;;;19.00;99.90;;;;;;5054801;28;20049;-62
2022/08/11 01:13:19;;;;;;;6.57;4.22;;;19.00;99.90;;;;;;5067877;28;20101;-62
2022/08/11 01:16:00;;;;;;;5.65;3.88;;;19.00;99.90;;;;;;5046702;28;20524;-62
2022/08/11 01:18:52;;;;;;;5.93;3.75;;;18.90;99.90;;;;;;5043650;28;20040;-62
2022/08/11 01:21:39;;;;;;;6.07;4.30;;;18.90;99.90;;;;;;5060549;28;20116;-62
2022/08/11 01:24:49;;;;;;;10.13;4.65;;;18.90;99.90;;;;;;5080210;28;20505;-62
2022/08/11 01:27:44;;;;;;;6.40;3.97;;;18.80;99.90;;;;;;5034381;28;20410;-62
2022/08/11 01:30:36;;;;;;;5.70;4.38;;;18.80;99.90;;;;;;5051405;28;20043;-62
2022/08/11 01:33:20;;;;;;;7.65;4.72;;;18.80;99.90;;;;;;5047933;28;20051;-62
2022/08/11 01:36:26;;;;;;;8.70;4.35;;;18.80;99.90;;;;;;5051170;28;20144;-61
2022/08/11 01:39:09;;;;;;;6.35;4.10;;;18.80;99.90;;;;;;5045675;28;20079;-62
2022/08/11 01:44:48;;;;;;;6.65;4.13;;;18.70;99.90;;;;;;5059854;28;20044;-62
2022/08/11 01:47:51;;;;;;;6.43;4.47;;;18.70;99.90;;;;;;5078814;28;20123;-62
2022/08/11 01:50:35;;;;;;;6.32;4.20;;;18.70;99.90;;;;;;5048954;28;20044;-62
2022/08/11 01:53:22;;;;;;;5.50;4.15;;;18.60;99.90;;;;;;5062752;28;20078;-62
2022/08/11 01:56:08;;;;;;;8.35;4.50;;;18.60;99.90;;;;;;5068680;28;20039;-62
2022/08/11 01:59:08;;;;;;;5.30;4.15;;;18.50;99.90;;;;;;5059781;28;20097;-62
2022/08/11 02:02:02;;;;;;;5.63;4.20;;;18.50;99.90;;;;;;5053526;28;20072;-62
2022/08/11 02:04:49;;;;;;;6.53;4.55;;;18.50;99.90;;;;;;5049701;28;20134;-61
2022/08/11 02:07:25;;;;;;;6.95;4.65;;;18.50;99.90;;;;;;5066561;28;20029;-62
2022/08/11 02:12:59;;;;;;;8.57;4.78;;;18.50;99.90;;;;;;5051937;28;20044;-62
2022/08/11 02:15:35;;;;;;;5.90;4.57;;;18.40;99.90;;;;;;5069248;28;20446;-62
2022/08/11 02:18:12;;;;;;;9.63;4.75;;;18.40;99.90;;;;;;5068211;28;20040;-62
2022/08/11 02:23:58;;;;;;;8.43;4.80;;;18.40;99.90;;;;;;5045972;28;20500;-62
2022/08/11 02:26:40;;;;;;;5.72;4.53;;;18.40;99.90;;;;;;5057507;28;20043;-62
2022/08/11 02:29:15;;;;;;;;;;;18.30;99.90;;;;;;5076050;28;20028;-62
2022/08/11 02:35:09;;;;;;;6.55;4.50;;;18.40;99.90;;;;;;5060680;28;20068;-62
2022/08/11 02:38:05;;;;;;;7.00;5.05;;;18.30;99.90;;;;;;5065863;28;20064;-62
2022/08/11 02:42:21;;;;;;;7.13;4.97;;;18.30;99.90;;;;;;5079988;28;20101;-62
2022/08/11 02:44:04;;;;;;;6.45;5.20;;;18.30;99.90;;;;;;5017740;28;20102;-62
2022/08/11 02:47:13;;;;;;;7.15;5.28;;;18.30;99.90;;;;;;5052394;28;20483;-62
2022/08/11 02:49:52;;;;;;;8.40;5.43;;;18.30;99.90;;;;;;5050231;28;20037;-62
2022/08/11 02:52:39;;;;;;;7.15;5.22;;;18.20;99.90;;;;;;5068845;28;20390;-62
2022/08/11 02:55:18;;;;;;;7.45;5.22;;;18.20;99.90;;;;;;5052230;28;20044;-62
2022/08/11 02:57:53;;;;;;;8.30;5.28;;;18.20;99.90;;;;;;5055360;28;20123;-62
2022/08/11 03:00:20;;;;;;;7.25;5.13;;;18.10;99.90;;;;;;5066660;28;20032;-62
2022/08/11 03:02:57;;;;;;;7.30;5.10;;;18.20;99.90;;;;;;5070339;28;20040;-61
2022/08/11 03:05:51;;;;;;;8.00;5.25;;;18.10;99.90;;;;;;5060806;28;20558;-62
2022/08/11 03:08:29;;;;;;;7.80;5.63;;;18.10;99.90;;;;;;5074279;28;20084;-62
2022/08/11 03:17:18;;;;;;;7.82;5.70;;;18.00;99.90;;;;;;5052344;28;20052;-62
2022/08/11 03:20:14;;;;;;;9.13;5.68;;;18.00;99.90;;;;;;5052312;28;20494;-62
2022/08/11 03:23:02;;;;;;;7.28;5.85;;;18.00;99.90;;;;;;5047386;28;20135;-62
2022/08/11 03:25:58;;;;;;;7.10;5.35;;;18.00;99.90;;;;;;5072031;28;20044;-62
2022/08/11 03:28:50;;;;;;;8.88;5.95;;;18.00;99.90;;;;;;5053811;28;20448;-62
2022/08/11 03:31:29;;;;;;;6.85;5.32;;;17.90;99.90;;;;;;5049663;28;20525;-62
2022/08/11 03:34:07;;;;;;;8.18;5.90;;;17.90;99.90;;;;;;5064231;28;20043;-62
2022/08/11 03:36:58;;;;;;;9.23;5.60;;;17.90;99.90;;;;;;5062117;28;20041;-62
2022/08/11 03:39:45;;;;;;;8.85;6.22;;;17.90;99.90;;;;;;5069905;28;20036;-62
2022/08/11 03:42:45;;;;;;;11.82;6.07;;;17.90;99.90;;;;;;5052596;28;20088;-61
2022/08/11 03:45:38;;;;;;;7.90;5.78;;;17.80;99.90;;;;;;5080864;28;20040;-62
2022/08/11 03:48:10;;;;;;;8.43;6.18;;;17.80;99.90;;;;;;5054229;28;20051;-62
2022/08/11 03:50:55;;;;;;;7.70;6.07;;;17.80;99.90;;;;;;5073341;28;20036;-62
2022/08/11 03:54:04;;;;;;;9.40;6.65;;;17.80;99.90;;;;;;5054473;28;20048;-61
2022/08/11 03:57:02;;;;;;;9.38;6.57;;;17.70;99.90;;;;;;5065675;28;20089;-62
2022/08/11 03:59:50;;;;;;;10.57;6.40;;;17.70;99.90;;;;;;5079076;28;20046;-62
2022/08/11 04:02:35;;;;;;;8.32;6.10;;;17.70;99.90;;;;;;5077707;28;20062;-62
2022/08/11 04:05:46;;;;;;;9.57;6.38;;;17.70;99.90;;;;;;5062687;28;20049;-62
2022/08/11 04:08:46;;;;;;;11.02;6.22;;;17.60;99.90;;;;;;5044290;28;20036;-62
2022/08/11 04:12:06;;;;;;;8.50;6.03;;;17.70;99.90;;;;;;5047991;28;20394;-62
2022/08/11 04:18:18;;;;;;;8.38;6.18;;;17.60;99.90;;;;;;4990089;28;20063;-62
2022/08/11 04:20:47;;;;;;;8.90;6.13;;;17.60;99.90;;;;;;5047081;28;20068;-61
2022/08/11 04:23:25;;;;;;;9.98;6.80;;;17.60;99.90;;;;;;5057604;28;20097;-62
2022/08/11 04:26:09;;;;;;;8.43;5.53;;;17.50;99.90;;;;;;5053709;28;20349;-62
2022/08/11 04:29:12;;;;;;;8.65;6.40;;;17.50;99.90;;;;;;5076603;28;20094;-61
2022/08/11 04:31:50;;;;;;;10.60;6.30;;;17.50;99.90;;;;;;5064811;28;20051;-61
2022/08/11 04:34:35;;;;;;;9.10;6.05;;;17.50;99.90;;;;;;5067267;28;20068;-61
2022/08/11 04:37:35;;;;;;;8.20;6.00;;;17.50;99.90;;;;;;5063754;28;20049;-62
2022/08/11 04:40:01;;;;;;;8.90;6.72;;;17.50;99.90;;;;;;5065340;28;20049;-62
2022/08/11 04:43:20;;;;;;;11.18;6.70;;;17.50;99.90;;;;;;5053693;28;20044;-62
2022/08/11 04:46:13;;;;;;;10.45;6.53;;;17.40;99.90;;;;;;5059579;28;20036;-61
2022/08/11 05:06:59;;;;;;;8.82;6.03;;;17.50;99.90;;;;;;5041226;28;20044;-62
2022/08/11 05:09:41;;;;;;;9.43;6.63;;;17.40;99.90;;;;;;5025989;28;20049;-62
2022/08/11 05:12:11;;;;;;;;;;;17.40;99.90;;;;;;5048255;28;20048;-62
2022/08/11 05:35:59;;;;;;;10.73;6.32;;;17.50;99.90;;;;;;5070258;28;20044;-62
2022/08/11 05:58:04;;;;;;;8.20;5.60;;;17.60;99.90;;;;;;5041793;28;20057;-62
2022/08/11 06:00:30;;;;;;;11.32;6.53;;;17.60;99.90;;;;;;5066084;28;20429;-62
2022/08/11 06:03:02;;;;;;;9.02;6.35;;;17.60;99.90;;;;;;5082870;28;20367;-62
2022/08/11 06:05:35;;;;;;;;;;;17.60;99.90;;;;;;5070238;28;20090;-61
2022/08/11 06:08:02;;;;;;;9.60;6.10;;;17.60;99.90;;;;;;5077932;28;19923;-62
2022/08/11 06:10:40;;;;;;;9.43;5.70;;;17.70;99.90;;;;;;5057697;28;20048;-62
2022/08/11 06:13:07;;;;;;;9.35;6.40;;;17.70;99.90;;;;;;5051948;28;20532;-62
2022/08/11 06:15:42;;;;;;;9.93;6.00;;;17.70;99.90;;;;;;5050683;28;20052;-62
2022/08/11 06:18:10;;;;;;;10.35;6.00;;;17.70;99.90;;;;;;5066471;28;20153;-62
2022/08/11 06:20:49;;;;;;;10.93;6.40;;;17.70;99.90;;;;;;5058488;28;20574;-62
2022/08/11 06:23:19;;;;;;;8.32;5.90;;;17.80;99.90;;;;;;5072638;28;20521;-62
2022/08/11 06:25:46;;;;;;;8.73;5.25;;;17.80;99.90;;;;;;5052066;28;20072;-62
2022/08/11 06:28:13;;;;;;;9.77;5.72;;;17.80;99.90;;;;;;5063506;28;20533;-62
2022/08/11 06:30:44;;;;;;;7.00;5.50;;;17.80;99.90;;;;;;5062362;28;20495;-62
2022/08/11 06:33:17;;;;;;;13.18;6.18;;;17.90;99.90;;;;;;5032229;28;20036;-61
2022/08/11 06:36:06;;;;;;;9.52;6.38;;;17.90;99.90;;;;;;5062259;28;20036;-61
2022/08/11 06:39:14;;;;;;;9.40;5.43;;;17.90;99.90;;;;;;5045383;28;20048;-62
2022/08/11 06:41:56;;;;;;;8.48;5.50;;;18.00;99.90;;;;;;5064327;28;20051;-61
2022/08/11 06:44:26;;;;;;;8.05;5.65;;;18.00;99.90;;;;;;5070169;28;20040;-61
2022/08/11 06:46:54;;;;;;;9.02;5.40;;;18.00;99.90;;;;;;5049565;28;20043;-62
2022/08/11 06:52:16;;;;;;;7.55;5.05;;;18.10;99.90;;;;;;5070514;28;20044;-62
2022/08/11 06:54:56;;;;;;;7.60;5.60;;;18.10;99.90;;;;;;5074293;28;20047;-61
2022/08/11 07:03:21;;;;;;;8.35;5.85;;;18.20;99.90;;;;;;5070098;28;20045;-63
2022/08/11 07:06:08;;;;;;;8.27;5.07;;;18.30;99.90;;;;;;5065978;28;20044;-62
2022/08/11 07:17:20;;;;;;;8.77;4.65;;;18.50;99.90;;;;;;5074355;28;20052;-62
2022/08/11 07:28:57;;;;;;;6.90;4.00;;;18.80;99.90;;;;;;5072330;28;20047;-62
2022/08/11 07:31:25;;;;;;;4.05;3.13;;;18.90;99.90;;;;;;5074007;28;20525;-62
2022/08/11 07:34:06;;;;;;;5.10;3.67;;;19.00;99.90;;;;;;5065817;28;20040;-62
2022/08/11 07:36:34;;;;;;;7.75;3.72;;;19.10;99.90;;;;;;5077414;28;20041;-62
2022/08/11 07:39:00;;;;;;;4.97;3.70;;;19.10;99.90;;;;;;5085049;28;20035;-62
2022/08/11 07:41:29;;;;;;;7.72;3.17;;;19.20;99.90;;;;;;5051394;28;20394;-62
2022/08/11 07:44:07;;;;;;;5.53;3.20;;;19.20;99.90;;;;;;5080431;28;20036;-62
2022/08/11 07:54:53;;;;;;;10.05;3.75;;;19.60;99.90;;;;;;5061073;28;20082;-62
2022/08/11 08:19:20;;;;;;;7.63;2.30;;;20.50;99.90;;;;;;5054497;28;20033;-62
2022/08/11 08:21:47;;;;;;;2.22;2.00;;;20.60;99.90;;;;;;5078614;28;20508;-62
2022/08/11 08:24:13;;;;;;;6.75;2.42;;;20.70;99.90;;;;;;5062331;28;20544;-62
2022/08/11 08:26:59;;;;;;;6.95;2.58;;;21.00;99.90;;;;;;5047571;28;20032;-63
2022/08/11 08:32:19;;;;;;;4.10;1.80;;;21.20;99.90;;;;;;5051503;28;20501;-62
2022/08/11 08:34:47;;;;;;;3.47;1.90;;;21.40;99.90;;;;;;5072969;28;20051;-62
2022/08/11 08:37:16;;;;;;;3.28;2.15;;;21.60;99.90;;;;;;5078419;28;20056;-62
2022/08/11 08:39:44;;;;;;;5.55;2.45;;;21.80;99.90;;;;;;5072521;28;20041;-62
2022/08/11 08:42:13;;;;;;;4.57;2.20;;;22.10;99.90;;;;;;5051042;28;20041;-63
2022/08/11 08:44:45;;;;;;;3.65;1.90;;;22.30;99.90;;;;;;5053578;28;20048;-63
2022/08/11 08:47:17;;;;;;;2.55;1.90;;;22.60;99.90;;;;;;5071108;28;20502;-62
2022/08/11 08:49:49;;;;;;;3.65;2.35;;;22.90;99.90;;;;;;5071989;28;20119;-62
2022/08/11 08:52:21;;;;;;;6.75;2.28;;;23.20;99.90;;;;;;5078018;28;20040;-63
2022/08/11 08:54:52;;;;;;;4.93;2.00;;;23.40;99.90;;;;;;5054476;28;20491;-62
2022/08/11 08:57:26;;;;;;;7.65;2.20;;;23.70;99.90;;;;;;5059361;28;20401;-63
2022/08/11 08:59:52;;;;;;;4.93;2.00;;;23.90;99.90;;;;;;5072351;28;20544;-63
2022/08/11 09:02:23;;;;;;;3.28;1.77;;;24.20;99.90;;;;;;5063551;28;20041;-63
2022/08/11 09:04:49;;;;;;;2.95;1.60;;;24.50;99.90;;;;;;5052621;28;20059;-63
2022/08/11 09:07:17;;;;;;;5.65;1.63;;;24.80;98.90;;;;;;5072453;28;20037;-63
2022/08/11 09:09:48;;;;;;;5.43;2.22;;;25.00;98.10;;;;;;5072209;28;20040;-63
2022/08/11 09:12:16;;;;;;;4.80;1.60;;;25.20;96.80;;;;;;5069503;28;20041;-63
2022/08/11 09:15:04;;;;;;;2.72;1.73;;;25.40;96.20;;;;;;5070054;28;20083;-64
2022/08/11 09:17:55;;;;;;;9.90;1.63;;;25.60;95.50;;;;;;5048961;28;20033;-63
2022/08/11 09:20:25;;;;;;;4.05;1.73;;;25.90;94.10;;;;;;5038102;28;20041;-63
2022/08/11 09:28:28;;;;;;;3.95;1.80;;;26.40;91.40;;;;;;5048344;28;20506;-63
2022/08/11 09:30:55;;;;;;;2.90;1.70;;;26.70;89.10;;;;;;5079849;28;20541;-63
2022/08/11 09:33:24;;;;;;;3.30;1.90;;;26.80;87.70;;;;;;5054170;28;20036;-63
2022/08/11 09:35:51;;;;;;;2.80;1.40;;;26.90;85.40;;;;;;5080784;28;20043;-63
2022/08/11 09:41:08;;;;;;;3.95;1.50;;;27.20;81.30;;;;;;5059382;28;20072;-63
2022/08/11 09:46:27;;;;;;;1.63;1.52;;;27.40;75.70;;;;;;5072614;28;20053;-63
2022/08/11 09:48:57;;;;;;;2.22;1.70;;;27.50;76.00;;;;;;5075420;28;20119;-63
2022/08/11 09:51:24;;;;;;;2.33;1.95;;;27.60;74.10;;;;;;5069608;28;20032;-63
2022/08/11 09:53:50;;;;;;;6.47;2.05;;;27.70;71.70;;;;;;5074184;28;20098;-64
2022/08/11 09:59:04;;;;;;;5.05;2.08;;;27.90;68.70;;;;;;5045238;28;20127;-63
2022/08/11 10:01:40;;;;;;;5.30;2.03;;;28.10;68.00;;;;;;5079202;28;20040;-63
2022/08/11 10:04:16;;;;;;;3.50;2.10;;;28.20;66.10;;;;;;5078900;28;20031;-63
2022/08/11 10:07:01;;;;;;;6.35;2.05;;;28.30;64.40;;;;;;5053657;28;20036;-63
2022/08/11 10:09:35;;;;;;;2.55;2.05;;;28.40;64.10;;;;;;5061554;28;20133;-63
2022/08/11 10:12:05;;;;;;;3.15;2.25;;;28.50;63.40;;;;;;5063078;28;20094;-64
2022/08/11 10:17:19;;;;;;;2.25;1.80;;;28.70;63.90;;;;;;5054111;28;20040;-63
2022/08/11 10:19:47;;;;;;;3.58;1.80;;;28.90;63.80;;;;;;5052990;28;20421;-63
2022/08/11 10:27:47;;;;;;;3.78;2.10;;;29.20;62.80;;;;;;5078890;28;20498;-62
2022/08/11 10:35:44;;;;;;;4.13;2.22;;;29.50;61.80;;;;;;5045475;28;20478;-63
2022/08/11 10:38:13;;;;;;;3.13;2.40;;;29.60;60.60;;;;;;5047758;28;20082;-63
2022/08/11 10:40:43;;;;;;;3.72;2.35;;;29.70;59.90;;;;;;5060884;28;20545;-63
2022/08/11 10:43:13;;;;;;;2.97;2.17;;;29.70;59.50;;;;;;5062051;28;20036;-63
2022/08/11 10:48:33;;;;;;;4.85;2.20;;;29.80;59.50;;;;;;5059424;28;20045;-63
2022/08/11 10:51:14;;;;;;;3.58;1.85;;;29.80;59.40;;;;;;5059935;28;20478;-63
2022/08/11 10:59:21;;;;;;;2.25;1.98;;;30.20;57.60;;;;;;5050762;28;20505;-63
2022/08/11 11:01:46;;;;;;;3.65;1.98;;;30.30;57.30;;;;;;5036474;28;20043;-63
2022/08/11 11:04:55;;;;;;;6.65;1.98;;;30.40;57.00;;;;;;5049774;28;20040;-63
2022/08/11 11:07:29;;;;;;;4.25;1.90;;;30.40;55.50;;;;;;5053954;28;20083;-63
2022/08/11 11:09:59;;;;;;;3.30;1.95;;;30.50;56.40;;;;;;5069118;28;20047;-63
2022/08/11 11:18:10;;;;;;;3.03;1.90;;;30.70;55.90;;;;;;5049575;28;20407;-63
2022/08/11 11:20:43;;;;;;;4.82;1.90;;;30.80;54.60;;;;;;5072179;28;20033;-63
2022/08/11 11:23:13;;;;;;;3.80;1.77;;;30.70;53.40;;;;;;5050111;28;20502;-63
2022/08/11 11:26:13;;;;;;;4.68;2.10;;;30.70;54.40;;;;;;5069777;28;20040;-64
2022/08/11 11:29:09;;;;;;;5.50;1.98;;;30.70;52.90;;;;;;5066539;28;20075;-63
2022/08/11 11:31:53;;;;;;;3.08;1.80;;;30.80;53.20;;;;;;5067994;28;20051;-65
2022/08/11 11:34:24;;;;;;;1.92;1.70;;;31.00;53.80;;;;;;5076671;28;20040;-64
2022/08/11 11:36:55;;;;;;;3.10;1.90;;;31.00;53.30;;;;;;5055664;28;20044;-63
2022/08/11 11:39:25;;;;;;;;;;;31.10;52.60;;;;;;5083145;28;20534;-63
2022/08/11 11:41:54;;;;;;;2.42;1.80;;;31.20;51.80;;;;;;5051897;28;19969;-63
2022/08/11 11:44:24;;;;;;;2.15;1.77;;;31.30;53.10;;;;;;5059784;28;20486;-63
2022/08/11 11:46:51;;;;;;;3.38;1.65;;;31.30;52.60;;;;;;5062101;28;20044;-63
2022/08/11 11:49:22;;;;;;;2.53;1.90;;;31.30;52.00;;;;;;5072812;28;20397;-63
2022/08/11 11:51:52;;;;;;;5.22;1.73;;;31.40;52.10;;;;;;5071104;28;20093;-63
2022/08/11 11:54:25;;;;;;;2.95;1.90;;;31.40;52.00;;;;;;5076874;28;20036;-63
2022/08/11 11:56:52;;;;;;;1.85;1.73;;;31.40;51.40;;;;;;5070010;28;20033;-63
2022/08/11 12:02:09;;;;;;;;;;;31.50;51.00;;;;;;5049784;28;20436;-63
2022/08/11 12:04:44;;;;;;;3.28;1.55;;;31.60;49.50;;;;;;5074052;28;19962;-63
2022/08/11 12:09:57;;;;;;;2.80;1.60;;;31.50;50.20;;;;;;5059216;28;20056;-63
2022/08/11 12:15:08;;;;;;;3.55;1.60;;;31.40;50.10;;;;;;5073298;28;20052;-63
2022/08/11 12:17:35;;;;;;;5.90;1.80;;;31.50;50.20;;;;;;5072112;28;20036;-63
2022/08/11 12:20:01;;;;;;;2.25;1.90;;;31.60;50.00;;;;;;5057492;28;20491;-64
2022/08/11 12:27:57;;;;;;;3.35;1.63;;;31.90;50.20;;;;;;5082928;28;20529;-63
2022/08/11 12:30:23;;;;;;;1.70;1.60;;;31.90;50.10;;;;;;5076138;28;20044;-63
2022/08/11 12:32:49;;;;;;;2.78;1.80;;;32.00;50.10;;;;;;5073122;28;20040;-64
2022/08/11 12:35:15;;;;;;;5.32;1.70;;;32.00;49.50;;;;;;5054261;28;20406;-63
2022/08/11 12:37:46;;;;;;;3.00;1.90;;;31.90;48.80;;;;;;5072313;28;20064;-63
2022/08/11 12:45:47;;;;;;;2.78;1.95;;;31.70;48.80;;;;;;5069176;28;20457;-64
2022/08/11 12:54:15;;;;;;;2.83;1.80;;;31.80;48.20;;;;;;5055929;28;20478;-64
2022/08/11 13:05:07;;;;;;;2.65;1.65;;;31.80;47.90;;;;;;5054853;28;20048;-64
2022/08/11 13:07:38;;;;;;;2.03;1.83;;;31.70;47.00;;;;;;5062689;28;20059;-64
2022/08/11 13:10:05;;;;;;;;;;;31.70;47.20;;;;;;5086381;28;20115;-64
2022/08/11 13:12:47;;;;;;;2.00;1.65;;;31.60;46.80;;;;;;5052047;28;19916;-64
2022/08/11 13:15:19;;;;;;;2.67;1.70;;;31.60;47.40;;;;;;5078632;28;20552;-64
2022/08/11 13:17:48;;;;;;;1.95;1.55;;;31.60;47.50;;;;;;5078460;28;20102;-64
2022/08/11 13:20:18;;;;;;;3.10;1.67;;;31.60;47.50;;;;;;5078168;28;20036;-63
2022/08/11 13:22:48;;;;;;;2.53;1.80;;;31.60;47.20;;;;;;5053092;28;20044;-63
2022/08/11 13:25:16;;;;;;;2.53;1.77;;;31.60;47.30;;;;;;5057876;28;20040;-63
2022/08/11 13:27:44;;;;;;;1.50;1.40;;;31.50;47.40;;;;;;5074146;28;20051;-64
2022/08/11 13:32:56;;;;;;;3.78;1.70;;;31.60;47.50;;;;;;5069035;28;20044;-63
2022/08/11 13:35:22;;;;;;;1.90;1.73;;;31.50;47.60;;;;;;5067543;28;20041;-63
2022/08/11 13:37:50;;;;;;;3.47;1.80;;;31.40;47.80;;;;;;5021640;28;20041;-63
2022/08/11 13:40:18;;;;;;;1.83;1.50;;;31.50;48.00;;;;;;5041032;28;20134;-63
2022/08/11 13:42:45;;;;;;;3.05;1.70;;;31.50;48.00;;;;;;5058868;28;20046;-64
2022/08/11 13:45:12;;;;;;;3.55;1.70;;;31.60;47.90;;;;;;5067167;28;20393;-63
2022/08/11 13:47:39;;;;;;;3.15;1.80;;;31.60;47.80;;;;;;5065878;28;20099;-66
2022/08/11 13:50:07;;;;;;;2.78;1.67;;;31.60;47.60;;;;;;5048763;28;20110;-63
2022/08/11 13:52:34;;;;;;;3.97;1.83;;;31.60;47.10;;;;;;5064362;28;20057;-63
2022/08/11 13:55:00;;;;;;;2.28;1.63;;;31.60;46.70;;;;;;5060800;28;20047;-63
2022/08/11 13:57:32;;;;;;;3.92;1.92;;;31.50;46.60;;;;;;5065158;28;20087;-64
2022/08/11 14:00:08;;;;;;;3.10;1.65;;;31.60;46.90;;;;;;5051047;28;20032;-63
2022/08/11 14:02:40;;;;;;;3.55;1.95;;;31.60;47.10;;;;;;5081475;28;20041;-63
2022/08/11 14:05:14;;;;;;;2.45;1.75;;;31.50;47.40;;;;;;5077192;28;20032;-63
2022/08/11 14:07:58;;;;;;;3.08;1.67;;;31.50;47.90;;;;;;5064248;28;20063;-63
2022/08/11 14:10:28;;;;;;;4.97;1.88;;;31.50;47.90;;;;;;5079608;28;20079;-63
2022/08/11 14:16:00;;;;;;;3.42;1.75;;;31.50;48.00;;;;;;5044900;28;20048;-64
2022/08/11 14:18:29;;;;;;;2.45;1.73;;;31.60;47.80;;;;;;5050892;28;20044;-63
2022/08/11 14:23:49;;;;;;;2.22;1.60;;;31.60;47.70;;;;;;5054088;28;20119;-63
2022/08/11 14:26:25;;;;;;;4.80;1.80;;;31.60;47.00;;;;;;5050295;28;20401;-63
2022/08/11 14:29:04;;;;;;;2.38;1.60;;;31.60;46.30;;;;;;5067478;28;20058;-63
2022/08/11 14:31:32;;;;;;;2.78;1.60;;;31.50;46.60;;;;;;5072421;28;20048;-63
2022/08/11 14:34:01;;;;;;;2.80;1.63;;;31.50;46.30;;;;;;5083589;28;20040;-65
2022/08/11 14:36:38;;;;;;;1.92;1.50;;;31.40;46.00;;;;;;5077447;28;20094;-63
2022/08/11 14:39:13;;;;;;;3.03;1.60;;;31.40;46.50;;;;;;5056150;28;20217;-63
2022/08/11 14:47:14;;;;;;;2.22;1.40;;;31.30;46.80;;;;;;5070440;28;20045;-63
2022/08/11 14:49:41;;;;;;;3.22;1.42;;;31.40;46.90;;;;;;5067881;28;20033;-63
2022/08/11 14:52:10;;;;;;;2.72;1.65;;;31.40;46.80;;;;;;5072955;28;20145;-63
2022/08/11 14:57:22;;;;;;;2.22;1.50;;;31.30;47.10;;;;;;5047737;28;20053;-64
2022/08/11 14:59:49;;;;;;;1.85;1.50;;;31.30;47.10;;;;;;5035651;28;20506;-63
2022/08/11 15:05:04;;;;;;;4.32;1.60;;;31.40;47.20;;;;;;5047552;28;20048;-63
2022/08/11 15:07:32;;;;;;;3.50;1.45;;;31.30;47.50;;;;;;5067398;28;20091;-63
2022/08/11 15:10:06;;;;;;;2.40;1.67;;;31.30;47.40;;;;;;5064468;28;20406;-63
2022/08/11 15:12:35;;;;;;;1.40;1.30;;;31.30;47.50;;;;;;5082045;28;20043;-63
2022/08/11 15:17:52;;;;;;;1.90;1.48;;;31.20;47.20;;;;;;5051418;28;20410;-63
2022/08/11 15:25:58;;;;;;;3.75;1.60;;;31.20;47.00;;;;;;5066964;28;20048;-63
2022/08/11 15:48:20;;;;;;;2.75;1.30;;;30.80;45.90;;;;;;5047841;28;20041;-63
2022/08/11 15:50:51;;;;;;;3.17;1.60;;;30.80;46.60;;;;;;5049096;28;20044;-66
2022/08/11 15:53:22;;;;;;;2.47;1.42;;;30.70;47.30;;;;;;5054559;28;20089;-63
2022/08/11 15:55:49;;;;;;;2.47;1.50;;;30.70;47.20;;;;;;5055315;28;20567;-63
2022/08/11 16:04:11;;;;;;;2.25;1.60;;;30.50;46.90;;;;;;5054495;28;20052;-63
2022/08/11 16:06:41;;;;;;;3.15;1.50;;;30.50;46.70;;;;;;5076712;28;20033;-65
2022/08/11 16:09:09;;;;;;;2.38;1.60;;;30.50;47.10;;;;;;5066190;28;20123;-63
2022/08/11 16:11:35;;;;;;;4.32;1.60;;;30.40;47.50;;;;;;5080704;28;20113;-64
2022/08/11 16:16:51;;;;;;;3.53;1.75;;;30.30;47.60;;;;;;5073580;28;20044;-63
2022/08/11 16:19:19;;;;;;;2.63;1.60;;;30.30;47.40;;;;;;5064349;28;20047;-63
2022/08/11 16:21:49;;;;;;;4.15;1.90;;;30.20;47.70;;;;;;5089731;28;20040;-63
2022/08/11 16:24:18;;;;;;;2.08;1.60;;;30.20;48.40;;;;;;5052260;28;20056;-65
2022/08/11 16:26:44;;;;;;;3.03;1.63;;;30.10;48.40;;;;;;5059939;28;20045;-63
2022/08/11 16:29:11;;;;;;;3.75;1.70;;;30.10;48.30;;;;;;5053232;28;20049;-63
2022/08/11 16:31:38;;;;;;;2.38;1.80;;;30.00;48.30;;;;;;5072804;28;20099;-62
2022/08/11 16:38:33;;;;;;;3.78;1.75;;;30.00;48.80;;;;;;5062810;28;20044;-63
2022/08/11 16:39:38;;;;;;;2.10;1.60;;;29.90;49.00;;;;;;5050592;28;20036;-65
2022/08/11 16:47:36;;;;;;;3.63;1.60;;;29.70;48.60;;;;;;5057516;28;20056;-62
2022/08/11 16:50:02;;;;;;;3.70;1.88;;;29.60;48.20;;;;;;5046152;28;20444;-64
2022/08/11 16:52:28;;;;;;;2.13;1.80;;;29.60;48.70;;;;;;5045031;28;20099;-64
2022/08/11 16:54:53;;;;;;;3.80;1.70;;;29.50;48.60;;;;;;5071786;28;20494;-63
2022/08/11 17:00:11;;;;;;;1.67;1.50;;;29.40;48.50;;;;;;5078260;28;20470;-63
2022/08/11 17:14:04;;;;;;;2.85;1.70;;;29.10;50.00;;;;;;5049169;28;20048;-64
2022/08/11 17:16:39;;;;;;;6.25;1.80;;;29.00;49.80;;;;;;5071614;28;20394;-64
2022/08/11 17:19:12;;;;;;;2.67;1.70;;;29.00;49.80;;;;;;5070559;28;20571;-63
2022/08/11 17:24:35;;;;;;;5.65;1.80;;;28.90;50.00;;;;;;5050627;28;20072;-62
2022/08/11 17:27:04;;;;;;;2.83;1.70;;;28.80;49.80;;;;;;5066060;28;20047;-63
2022/08/11 17:29:41;;;;;;;2.55;2.03;;;28.70;49.90;;;;;;5067312;28;20111;-64
2022/08/11 17:37:44;;;;;;;2.80;1.80;;;28.50;50.50;;;;;;5069323;28;20558;-63
2022/08/11 17:40:16;;;;;;;3.15;1.90;;;28.40;50.80;;;;;;5074277;28;20035;-63
2022/08/11 17:48:26;;;;;;;2.40;1.67;;;28.20;51.70;;;;;;5052554;28;20085;-62
2022/08/11 17:50:54;;;;;;;3.22;1.90;;;28.10;52.00;;;;;;5047381;28;20405;-63
2022/08/11 18:03:27;;;;;;;2.00;1.55;;;27.70;53.20;;;;;;4994762;28;20038;-62
2022/08/11 18:04:44;;;;;;;3.08;1.80;;;27.60;53.40;;;;;;5059622;28;20414;-64
